createdAt,value
2023-01-01T00:01:23.408Z,5.79
2023-01-01T00:03:51.920Z,5.79
2023-01-01T00:06:20.271Z,5.84
2023-01-01T00:09:10.122Z,5.86
2023-01-01T00:11:38.223Z,5.87
2023-01-01T00:14:12.068Z,5.88
2023-01-01T00:16:40.878Z,5.88
2023-01-01T00:19:09.537Z,5.83
2023-01-01T00:21:37.598Z,5.77
2023-01-01T00:24:08.295Z,5.74
2023-01-01T00:26:36.387Z,5.80
2023-01-01T00:29:05.224Z,5.88
2023-01-01T00:31:33.445Z,6.01
2023-01-01T00:34:01.608Z,6.06
2023-01-01T00:36:31.018Z,6.05
2023-01-01T00:38:59.368Z,6.07
2023-01-01T00:41:28.711Z,6.08
2023-01-01T00:43:56.715Z,6.02
2023-01-01T00:46:24.846Z,5.99
2023-01-01T00:48:52.863Z,5.98
2023-01-01T00:51:20.831Z,5.89
2023-01-01T00:53:48.763Z,5.81
2023-01-01T00:56:16.813Z,5.80
2023-01-01T00:59:00.641Z,5.78
2023-01-01T01:01:29.849Z,5.99
2023-01-01T01:03:58.173Z,6.15
2023-01-01T01:06:26.268Z,6.48
2023-01-01T01:08:54.454Z,6.55
2023-01-01T01:11:24.969Z,7.04
2023-01-01T01:13:56.632Z,7.39
2023-01-01T01:16:26.930Z,7.79
2023-01-01T01:18:57.625Z,8.08
2023-01-01T01:21:26.298Z,8.37
2023-01-01T01:23:55.105Z,8.68
2023-01-01T01:26:25.097Z,8.79
2023-01-01T01:28:55.327Z,8.78
2023-01-01T01:31:26.208Z,8.73
2023-01-01T01:33:54.165Z,8.70
2023-01-01T01:36:22.685Z,8.57
2023-01-01T01:38:50.875Z,8.41
2023-01-01T01:41:29.514Z,8.14
2023-01-01T01:44:01.651Z,7.69
2023-01-01T01:46:34.627Z,7.40
2023-01-01T01:49:06.562Z,7.20
2023-01-01T01:51:38.072Z,6.94
2023-01-01T01:54:10.180Z,6.85
2023-01-01T01:56:43.992Z,6.75
2023-01-01T01:59:13.854Z,6.59
2023-01-01T02:01:42.474Z,6.59
2023-01-01T02:04:10.711Z,6.55
2023-01-01T02:06:39.979Z,6.58
2023-01-01T02:09:09.618Z,6.80
2023-01-01T02:11:37.933Z,6.85
2023-01-01T02:14:06.381Z,7.06
2023-01-01T02:16:44.054Z,7.72
2023-01-01T02:19:19.986Z,7.94
2023-01-01T02:22:02.904Z,8.26
2023-01-01T02:24:44.787Z,8.58
2023-01-01T02:27:22.208Z,8.80
2023-01-01T02:29:54.637Z,8.95
2023-01-01T02:32:25.957Z,9.06
2023-01-01T02:34:59.209Z,9.07
2023-01-01T02:37:30.405Z,9.13
2023-01-01T02:40:00.747Z,9.13
2023-01-01T02:42:30.459Z,9.16
2023-01-01T02:45:00.976Z,9.12
2023-01-01T02:47:28.739Z,9.10
2023-01-01T02:50:02.139Z,8.97
2023-01-01T02:52:46.893Z,8.86
2023-01-01T02:55:26.819Z,8.72
2023-01-01T02:58:22.999Z,8.61
2023-01-01T03:00:54.400Z,8.47
2023-01-01T03:03:29.834Z,8.19
2023-01-01T03:06:18.962Z,8.05
2023-01-01T03:08:53.666Z,7.78
2023-01-01T03:11:25.907Z,7.54
2023-01-01T03:14:02.505Z,7.16
2023-01-01T03:16:37.762Z,6.94
2023-01-01T03:19:12.173Z,6.83
2023-01-01T03:21:45.311Z,6.67
2023-01-01T03:24:20.846Z,6.55
2023-01-01T03:26:51.156Z,6.37
2023-01-01T03:29:19.696Z,6.26
2023-01-01T03:31:51.318Z,6.16
2023-01-01T03:34:24.507Z,6.02
2023-01-01T03:36:58.177Z,5.87
2023-01-01T03:39:28.917Z,5.77
2023-01-01T03:42:05.882Z,5.69
2023-01-01T03:44:37.095Z,5.66
2023-01-01T03:47:07.612Z,5.50
2023-01-01T03:49:36.017Z,5.47
2023-01-01T03:52:17.130Z,5.37
2023-01-01T03:54:56.743Z,5.27
2023-01-01T03:57:32.162Z,5.27
2023-01-01T04:00:08.034Z,5.22
2023-01-01T04:02:41.753Z,5.15
2023-01-01T04:05:11.286Z,5.07
2023-01-01T04:10:18.101Z,5.03
2023-01-01T04:12:48.402Z,4.95
2023-01-01T04:15:16.751Z,4.93
2023-01-01T04:17:46.229Z,4.86
2023-01-01T04:20:15.004Z,4.84
2023-01-01T04:22:42.687Z,4.82
2023-01-01T04:25:12.132Z,4.82
2023-01-01T04:27:40.678Z,4.72
2023-01-01T04:30:11.174Z,4.61
2023-01-01T04:32:38.981Z,4.53
2023-01-01T04:35:09.891Z,4.51
2023-01-01T04:37:37.946Z,4.39
2023-01-01T04:40:07.267Z,4.31
2023-01-01T04:42:35.242Z,4.28
2023-01-01T04:45:03.045Z,4.22
2023-01-01T04:47:31.059Z,4.18
2023-01-01T04:49:58.798Z,4.09
2023-01-01T04:52:27.875Z,4.02
2023-01-01T04:54:55.703Z,3.98
2023-01-01T04:57:23.547Z,3.98
2023-01-01T04:59:51.387Z,3.96
2023-01-01T05:02:19.196Z,3.92
2023-01-01T05:04:47.064Z,3.89
2023-01-01T05:07:14.797Z,3.85
2023-01-01T05:09:43.929Z,3.77
2023-01-01T05:12:11.689Z,3.69
2023-01-01T05:14:39.393Z,3.63
2023-01-01T05:17:07.207Z,3.55
2023-01-01T05:19:34.982Z,3.55
2023-01-01T05:22:08.590Z,3.52
2023-01-01T05:24:38.128Z,3.56
2023-01-01T05:27:08.642Z,3.62
2023-01-01T05:29:36.383Z,3.76
2023-01-01T05:32:04.308Z,3.93
2023-01-01T05:36:58.683Z,4.78
2023-01-01T05:39:26.404Z,5.47
2023-01-01T05:41:54.083Z,6.10
2023-01-01T05:44:23.202Z,6.82
2023-01-01T05:46:50.904Z,7.34
2023-01-01T05:49:18.641Z,7.95
2023-01-01T05:51:46.486Z,8.45
2023-01-01T05:56:40.819Z,8.83
2023-01-01T05:59:08.541Z,8.97
2023-01-01T06:01:43.477Z,9.13
2023-01-01T06:04:13.785Z,9.34
2023-01-01T06:06:41.683Z,9.41
2023-01-01T06:09:11.435Z,9.42
2023-01-01T06:11:39.341Z,9.41
2023-01-01T06:14:07.092Z,9.36
2023-01-01T06:16:34.888Z,9.30
2023-01-01T06:19:04.085Z,9.23
2023-01-01T06:21:31.762Z,9.16
2023-01-01T06:24:00.920Z,9.10
2023-01-01T06:26:30.391Z,9.17
2023-01-01T06:28:58.828Z,9.16
2023-01-01T06:31:27.794Z,9.23
2023-01-01T06:33:55.536Z,9.22
2023-01-01T06:36:26.427Z,9.20
2023-01-01T06:38:56.518Z,9.21
2023-01-01T06:41:26.357Z,9.19
2023-01-01T06:43:55.888Z,9.15
2023-01-01T06:46:26.768Z,9.20
2023-01-01T06:48:55.929Z,9.16
2023-01-01T06:51:28.025Z,9.04
2023-01-01T06:53:58.699Z,8.92
2023-01-01T06:56:26.863Z,8.86
2023-01-01T06:58:54.739Z,8.75
2023-01-01T07:01:24.368Z,8.78
2023-01-01T07:03:53.936Z,8.83
2023-01-01T07:06:22.086Z,8.73
2023-01-01T07:08:51.476Z,8.56
2023-01-01T07:11:19.577Z,8.23
2023-01-01T07:13:47.329Z,8.02
2023-01-01T07:16:15.785Z,7.92
2023-01-01T07:18:43.565Z,7.92
2023-01-01T07:21:29.647Z,7.99
2023-01-01T07:24:00.563Z,8.13
2023-01-01T07:26:29.788Z,8.27
2023-01-01T07:29:06.003Z,8.43
2023-01-01T07:31:34.864Z,8.53
2023-01-01T07:34:02.825Z,8.46
2023-01-01T07:36:30.584Z,8.41
2023-01-01T07:38:59.761Z,8.43
2023-01-01T07:41:27.574Z,8.52
2023-01-01T07:43:55.301Z,8.70
2023-01-01T07:46:23.129Z,8.88
2023-01-01T07:48:50.918Z,9.07
2023-01-01T07:51:18.680Z,9.22
2023-01-01T07:53:46.579Z,9.20
2023-01-01T07:56:15.747Z,9.00
2023-01-01T07:58:43.746Z,8.83
2023-01-01T08:01:12.692Z,8.67
2023-01-01T08:03:40.549Z,8.36
2023-01-01T08:06:10.278Z,8.25
2023-01-01T08:08:38.547Z,8.19
2023-01-01T08:11:06.974Z,8.19
2023-01-01T08:13:36.398Z,8.06
2023-01-01T08:16:07.340Z,7.87
2023-01-01T08:18:35.138Z,7.68
2023-01-01T08:21:03.522Z,7.62
2023-01-01T08:23:31.327Z,7.44
2023-01-01T08:26:03.424Z,7.34
2023-01-01T08:28:31.708Z,7.25
2023-01-01T08:31:01.343Z,7.22
2023-01-01T08:33:29.481Z,7.21
2023-01-01T08:35:57.547Z,7.31
2023-01-01T08:38:25.566Z,7.47
2023-01-01T08:40:53.527Z,7.77
2023-01-01T08:43:21.402Z,8.06
2023-01-01T08:45:49.314Z,8.36
2023-01-01T08:48:18.496Z,8.79
2023-01-01T08:50:46.200Z,9.13
2023-01-01T08:53:14.007Z,9.53
2023-01-01T08:55:41.765Z,9.94
2023-01-01T08:58:09.469Z,10.38
2023-01-01T09:00:37.384Z,10.87
2023-01-01T09:03:05.350Z,11.23
2023-01-01T09:05:34.566Z,11.59
2023-01-01T09:08:02.325Z,11.95
2023-01-01T09:10:30.134Z,12.32
2023-01-01T09:12:57.893Z,12.68
2023-01-01T09:15:25.687Z,12.95
2023-01-01T09:17:53.569Z,13.24
2023-01-01T09:20:21.613Z,13.52
2023-01-01T09:22:51.018Z,13.70
2023-01-01T09:25:19.006Z,13.84
2023-01-01T09:27:46.908Z,13.96
2023-01-01T09:30:15.522Z,13.99
2023-01-01T09:32:43.379Z,14.17
2023-01-01T09:35:11.295Z,14.26
2023-01-01T09:37:39.375Z,14.39
2023-01-01T09:40:22.853Z,14.61
2023-01-01T09:43:01.559Z,14.85
2023-01-01T09:45:32.717Z,15.20
2023-01-01T09:48:06.327Z,15.43
2023-01-01T09:50:39.344Z,15.76
2023-01-01T09:53:14.815Z,16.08
2023-01-01T09:55:47.757Z,16.18
2023-01-01T09:58:16.603Z,16.56
2023-01-01T10:00:48.459Z,16.64
2023-01-01T10:03:37.766Z,16.85
2023-01-01T10:06:16.901Z,17.16
2023-01-01T10:08:58.475Z,17.30
2023-01-01T10:11:40.550Z,17.63
2023-01-01T10:14:19.339Z,17.93
2023-01-01T10:16:50.533Z,17.93
2023-01-01T10:19:27.602Z,18.20
2023-01-01T10:22:01.422Z,18.53
2023-01-01T10:24:40.262Z,18.60
2023-01-01T10:27:20.486Z,18.45
2023-01-01T10:29:58.030Z,18.21
2023-01-01T10:32:31.938Z,18.16
2023-01-01T10:35:02.148Z,17.98
2023-01-01T10:37:35.296Z,18.03
2023-01-01T10:40:07.955Z,18.36
2023-01-01T10:42:37.322Z,18.71
2023-01-01T10:45:06.321Z,19.04
2023-01-01T10:47:34.186Z,18.90
2023-01-01T10:50:07.611Z,18.85
2023-01-01T10:52:38.248Z,18.77
2023-01-01T10:55:09.449Z,18.99
2023-01-01T10:57:40.442Z,19.18
2023-01-01T11:00:20.648Z,18.83
2023-01-01T11:02:48.643Z,19.08
2023-01-01T11:05:22.023Z,19.37
2023-01-01T11:07:50.888Z,19.11
2023-01-01T11:10:21.320Z,18.32
2023-01-01T11:13:08.126Z,18.96
2023-01-01T11:15:41.313Z,19.36
2023-01-01T11:18:16.176Z,19.42
2023-01-01T11:20:44.804Z,19.29
2023-01-01T11:23:20.929Z,19.44
2023-01-01T11:26:00.125Z,19.38
2023-01-01T11:28:31.836Z,19.32
2023-01-01T11:31:08.081Z,19.53
2023-01-01T11:33:37.772Z,19.54
2023-01-01T11:36:07.290Z,19.55
2023-01-01T11:38:35.561Z,19.27
2023-01-01T11:41:06.169Z,19.05
2023-01-01T11:43:41.542Z,19.08
2023-01-01T11:46:13.158Z,18.79
2023-01-01T11:48:44.579Z,19.08
2023-01-01T11:51:28.990Z,19.53
2023-01-01T11:54:11.655Z,19.24
2023-01-01T11:56:40.802Z,19.54
2023-01-01T11:59:16.801Z,19.35
2023-01-01T12:01:48.374Z,19.62
2023-01-01T12:04:21.059Z,19.84
2023-01-01T12:06:53.481Z,20.29
2023-01-01T12:09:25.935Z,20.50
2023-01-01T12:11:58.506Z,20.45
2023-01-01T12:14:36.269Z,20.40
2023-01-01T12:17:06.488Z,20.21
2023-01-01T12:19:41.294Z,20.40
2023-01-01T12:22:16.345Z,20.67
2023-01-01T12:24:45.173Z,20.76
2023-01-01T12:27:26.333Z,21.01
2023-01-01T12:30:04.987Z,21.19
2023-01-01T12:32:48.497Z,21.36
2023-01-01T12:35:27.467Z,21.60
2023-01-01T12:38:04.480Z,21.57
2023-01-01T12:40:40.625Z,21.50
2023-01-01T12:43:11.880Z,21.30
2023-01-01T12:46:06.975Z,21.31
2023-01-01T12:48:51.508Z,20.74
2023-01-01T12:51:32.174Z,20.74
2023-01-01T12:54:29.415Z,20.76
2023-01-01T12:57:04.932Z,20.73
2023-01-01T12:59:35.612Z,20.55
2023-01-01T13:02:15.419Z,20.27
2023-01-01T13:04:44.721Z,20.14
2023-01-01T13:07:15.061Z,19.94
2023-01-01T13:09:48.266Z,19.87
2023-01-01T13:12:18.876Z,19.88
2023-01-01T13:14:49.784Z,19.73
2023-01-01T13:17:23.509Z,19.58
2023-01-01T13:20:00.536Z,19.40
2023-01-01T13:22:42.104Z,19.31
2023-01-01T13:25:30.776Z,19.16
2023-01-01T13:28:11.816Z,19.24
2023-01-01T13:30:50.649Z,19.11
2023-01-01T13:33:27.255Z,19.05
2023-01-01T13:36:28.495Z,18.74
2023-01-01T13:38:57.257Z,18.63
2023-01-01T13:41:35.652Z,18.54
2023-01-01T13:44:19.522Z,18.48
2023-01-01T13:47:04.196Z,18.29
2023-01-01T13:49:48.228Z,18.23
2023-01-01T13:52:44.267Z,18.40
2023-01-01T13:55:59.525Z,19.35
2023-01-01T13:58:55.491Z,20.20
2023-01-01T14:01:49.027Z,21.00
2023-01-01T14:04:33.710Z,21.15
2023-01-01T14:07:40.903Z,21.42
2023-01-01T14:10:20.320Z,21.05
2023-01-01T14:12:48.335Z,21.00
2023-01-01T14:15:18.406Z,21.03
2023-01-01T14:17:46.385Z,20.88
2023-01-01T14:20:19.893Z,20.22
2023-01-01T14:22:51.787Z,19.71
2023-01-01T14:25:26.813Z,19.26
2023-01-01T14:27:55.909Z,18.55
2023-01-01T14:30:23.902Z,17.98
2023-01-01T14:32:57.828Z,17.72
2023-01-01T14:35:25.974Z,17.63
2023-01-01T14:37:55.288Z,17.46
2023-01-01T14:40:28.325Z,16.96
2023-01-01T14:43:01.063Z,16.36
2023-01-01T14:45:31.111Z,15.69
2023-01-01T14:47:59.242Z,15.13
2023-01-01T14:50:30.997Z,14.68
2023-01-01T14:53:05.191Z,14.38
2023-01-01T14:55:40.241Z,14.15
2023-01-01T14:58:13.731Z,13.97
2023-01-01T15:00:41.603Z,13.81
2023-01-01T15:03:15.120Z,13.74
2023-01-01T15:05:44.941Z,13.62
2023-01-01T15:08:23.095Z,13.36
2023-01-01T15:10:51.618Z,13.16
2023-01-01T15:13:21.171Z,12.99
2023-01-01T15:15:50.651Z,12.86
2023-01-01T15:18:43.110Z,12.54
2023-01-01T15:21:25.024Z,12.35
2023-01-01T15:23:57.367Z,12.10
2023-01-01T15:26:30.872Z,11.89
2023-01-01T15:29:00.743Z,11.62
2023-01-01T15:31:37.499Z,11.41
2023-01-01T15:34:06.008Z,11.13
2023-01-01T15:36:34.347Z,10.95
2023-01-01T15:39:03.669Z,10.79
2023-01-01T15:41:43.354Z,10.64
2023-01-01T15:44:22.532Z,10.46
2023-01-01T15:46:52.718Z,10.36
2023-01-01T15:49:25.780Z,10.28
2023-01-01T15:51:55.382Z,10.11
2023-01-01T15:54:24.982Z,10.04
2023-01-01T15:56:53.102Z,9.89
2023-01-01T15:59:28.683Z,9.78
2023-01-01T16:02:04.381Z,9.61
2023-01-01T16:04:32.735Z,9.50
2023-01-01T16:07:01.140Z,9.34
2023-01-01T16:09:30.232Z,9.20
2023-01-01T16:11:59.368Z,9.05
2023-01-01T16:14:27.736Z,8.94
2023-01-01T16:17:00.861Z,8.84
2023-01-01T16:19:31.737Z,8.75
2023-01-01T16:21:59.501Z,8.67
2023-01-01T16:24:27.477Z,8.63
2023-01-01T16:26:56.639Z,8.52
2023-01-01T16:29:24.399Z,8.45
2023-01-01T16:31:52.871Z,8.35
2023-01-01T16:34:20.669Z,8.19
2023-01-01T16:36:49.283Z,8.14
2023-01-01T16:39:17.225Z,8.05
2023-01-01T16:41:45.941Z,7.93
2023-01-01T16:44:15.789Z,7.87
2023-01-01T16:46:44.170Z,7.84
2023-01-01T16:49:12.171Z,7.83
2023-01-01T16:51:43.835Z,7.72
2023-01-01T16:54:12.677Z,7.68
2023-01-01T16:56:40.855Z,7.58
2023-01-01T16:59:08.824Z,7.54
2023-01-01T17:01:38.249Z,7.50
2023-01-01T17:04:06.354Z,7.43
2023-01-01T17:06:34.762Z,7.38
2023-01-01T17:09:02.761Z,7.28
2023-01-01T17:11:30.673Z,7.24
2023-01-01T17:14:03.499Z,7.19
2023-01-01T17:16:39.138Z,7.11
2023-01-01T17:19:15.600Z,7.06
2023-01-01T17:21:47.638Z,7.00
2023-01-01T17:24:16.571Z,7.02
2023-01-01T17:26:44.923Z,6.99
2023-01-01T17:29:13.292Z,6.99
2023-01-01T17:31:41.500Z,7.12
2023-01-01T17:34:14.595Z,7.21
2023-01-01T17:36:43.599Z,7.40
2023-01-01T17:39:11.874Z,7.53
2023-01-01T17:41:40.063Z,7.66
2023-01-01T17:44:08.980Z,7.58
2023-01-01T17:46:37.477Z,7.52
2023-01-01T17:49:06.399Z,7.53
2023-01-01T17:51:35.568Z,7.42
2023-01-01T17:54:04.728Z,7.29
2023-01-01T17:56:32.690Z,7.12
2023-01-01T17:59:00.524Z,7.01
2023-01-01T18:01:32.123Z,6.86
2023-01-01T18:04:02.165Z,6.87
2023-01-01T18:06:32.044Z,6.88
2023-01-01T18:09:07.492Z,6.89
2023-01-01T18:11:35.821Z,7.00
2023-01-01T18:14:04.743Z,7.09
2023-01-01T18:16:34.750Z,7.23
2023-01-01T18:19:04.296Z,7.42
2023-01-01T18:21:33.235Z,7.56
2023-01-01T18:24:02.722Z,7.47
2023-01-01T18:26:32.288Z,7.39
2023-01-01T18:29:02.361Z,7.57
2023-01-01T18:31:32.316Z,7.54
2023-01-01T18:34:01.896Z,7.63
2023-01-01T18:36:32.183Z,7.49
2023-01-01T18:39:03.531Z,7.37
2023-01-01T18:41:53.782Z,7.45
2023-01-01T18:44:23.166Z,7.45
2023-01-01T18:46:55.852Z,7.42
2023-01-01T18:49:25.233Z,7.46
2023-01-01T18:51:57.192Z,7.36
2023-01-01T18:54:27.014Z,7.28
2023-01-01T18:57:04.052Z,7.26
2023-01-01T18:59:33.136Z,7.26
2023-01-01T19:02:01.756Z,7.23
2023-01-01T19:04:30.091Z,7.17
2023-01-01T19:06:58.378Z,7.08
2023-01-01T19:09:28.024Z,6.93
2023-01-01T19:11:58.038Z,6.90
2023-01-01T19:14:28.871Z,6.74
2023-01-01T19:16:59.116Z,6.49
2023-01-01T19:19:30.827Z,6.27
2023-01-01T19:22:07.962Z,6.15
2023-01-01T19:24:37.885Z,5.98
2023-01-01T19:27:14.703Z,5.82
2023-01-01T19:29:45.145Z,5.70
2023-01-01T19:32:13.271Z,5.60
2023-01-01T19:34:41.654Z,5.49
2023-01-01T19:37:11.045Z,5.40
2023-01-01T19:39:40.394Z,5.33
2023-01-01T19:42:08.869Z,5.30
2023-01-01T19:44:37.596Z,5.22
2023-01-01T19:47:05.850Z,5.24
2023-01-01T19:49:33.937Z,5.16
2023-01-01T19:52:03.740Z,5.12
2023-01-01T19:54:31.898Z,5.11
2023-01-01T19:57:01.394Z,5.10
2023-01-01T19:59:33.284Z,5.14
2023-01-01T20:04:51.237Z,5.18
2023-01-01T20:07:19.956Z,5.16
2023-01-01T20:09:48.522Z,5.18
2023-01-01T20:12:18.219Z,5.16
2023-01-01T20:14:46.666Z,5.21
2023-01-01T20:17:15.200Z,5.19
2023-01-01T20:19:43.768Z,5.31
2023-01-01T20:22:15.366Z,5.37
2023-01-01T20:24:45.001Z,5.34
2023-01-01T20:27:14.946Z,5.32
2023-01-01T20:29:45.560Z,5.38
2023-01-01T20:32:15.517Z,5.27
2023-01-01T20:34:44.116Z,5.23
2023-01-01T20:37:29.713Z,5.21
2023-01-01T20:39:58.128Z,5.23
2023-01-01T20:42:27.623Z,5.16
2023-01-01T20:44:57.408Z,5.10
2023-01-01T20:47:26.107Z,5.05
2023-01-01T20:49:54.670Z,4.96
2023-01-01T20:52:23.209Z,4.87
2023-01-01T20:54:52.267Z,4.85
2023-01-01T20:57:21.150Z,4.77
2023-01-01T20:59:49.753Z,4.76
2023-01-01T21:02:19.671Z,4.70
2023-01-01T21:04:47.914Z,4.70
2023-01-01T21:07:15.949Z,4.63
2023-01-01T21:09:44.357Z,4.52
2023-01-01T21:12:12.994Z,4.48
2023-01-01T21:14:40.863Z,4.43
2023-01-01T21:17:21.375Z,4.47
2023-01-01T21:19:50.302Z,4.37
2023-01-01T21:22:18.617Z,4.32
2023-01-01T21:24:51.818Z,4.32
2023-01-01T21:27:25.703Z,4.26
2023-01-01T21:29:57.598Z,4.23
2023-01-01T21:32:34.415Z,4.16
2023-01-01T21:35:02.589Z,4.21
2023-01-01T21:37:51.321Z,4.20
2023-01-01T21:40:32.605Z,4.25
2023-01-01T21:43:14.514Z,4.26
2023-01-01T21:45:45.610Z,4.42
2023-01-01T21:48:17.494Z,4.35
2023-01-01T21:50:48.707Z,4.39
2023-01-01T21:53:19.277Z,4.33
2023-01-01T21:55:55.123Z,4.37
2023-01-01T21:58:42.951Z,4.29
2023-01-01T22:01:21.057Z,4.17
2023-01-01T22:03:58.211Z,4.17
2023-01-01T22:06:32.954Z,4.05
2023-01-01T22:09:02.450Z,4.00
2023-01-01T22:11:30.929Z,3.95
2023-01-01T22:13:58.667Z,3.91
2023-01-01T22:16:29.842Z,3.91
2023-01-01T22:19:01.015Z,3.97
2023-01-01T22:21:28.767Z,3.88
2023-01-01T22:24:00.591Z,3.82
2023-01-01T22:26:31.176Z,3.71
2023-01-01T22:29:00.892Z,3.57
2023-01-01T22:31:32.257Z,3.53
2023-01-01T22:34:04.508Z,3.44
2023-01-01T22:36:36.073Z,3.34
2023-01-01T22:39:10.748Z,3.32
2023-01-01T22:41:38.632Z,3.19
2023-01-01T22:44:06.763Z,3.14
2023-01-01T22:46:37.863Z,3.01
2023-01-01T22:49:18.407Z,2.93
2023-01-01T22:51:47.444Z,2.99
2023-01-01T22:54:15.412Z,3.00
2023-01-01T23:02:32.797Z,3.03
2023-01-01T23:05:00.860Z,3.06
2023-01-01T23:07:29.450Z,3.08
2023-01-01T23:09:58.267Z,3.05
2023-01-01T23:12:26.022Z,3.02
2023-01-01T23:15:11.263Z,2.91
2023-01-01T23:17:40.407Z,2.90
2023-01-01T23:20:09.715Z,2.87
2023-01-01T23:22:40.227Z,2.83
2023-01-01T23:25:11.327Z,2.74
2023-01-01T23:27:39.697Z,2.66
2023-01-01T23:30:08.358Z,2.60
2023-01-01T23:32:37.131Z,2.52
2023-01-01T23:35:07.153Z,2.50
2023-01-01T23:37:35.261Z,2.41
2023-01-01T23:40:03.202Z,2.36
2023-01-01T23:42:31.037Z,2.29
2023-01-01T23:44:58.748Z,2.21
2023-01-01T23:47:26.496Z,2.23
2023-01-01T23:49:54.192Z,2.22
2023-01-01T23:52:23.396Z,2.19
2023-01-01T23:54:51.221Z,2.16
2023-01-01T23:57:18.927Z,2.16
2023-01-01T23:59:46.721Z,2.16
